Time;durP1;ratioP1;P1;durP2;ratioP2;P2;SDS_P1;SDS_P2;PMS_P1;PMS_P2;Temp;Humidity;BMP_temperature;BMP_pressure;BME280_temperature;BME280_humidity;BME280_pressure;Samples;Min_cycle;Max_cycle;Signal;HPM_P1;HPM_P2
2024/04/23 00:02:20;;;;;;;18.00;11.30;;;;;;;2.69;89.93;99589.10;270356;1266;23327;-81
2024/04/23 00:08:42;;;;;;;20.10;11.60;;;;;;;2.66;89.96;99591.79;270859;1265;24216;-82
2024/04/23 00:14:43;;;;;;;20.30;11.90;;;;;;;2.59;89.87;99582.73;270505;1264;22556;-82
2024/04/23 00:20:45;;;;;;;18.40;12.30;;;;;;;2.54;90.71;99572.21;270349;1265;22546;-80
2024/04/23 00:26:58;;;;;;;21.80;13.60;;;;;;;2.49;91.05;99564.71;273363;1265;22214;-81
2024/04/23 00:33:00;;;;;;;19.40;12.90;;;;;;;2.44;91.16;99553.58;272103;1265;22979;-81
2024/04/23 00:39:24;;;;;;;20.70;12.60;;;;;;;2.38;90.98;99560.98;274109;1264;23677;-81
2024/04/23 00:45:31;;;;;;;25.60;16.50;;;;;;;2.32;91.03;99561.23;273810;1264;22395;-80
2024/04/23 00:51:58;;;;;;;22.60;15.70;;;;;;;2.21;90.74;99565.02;274416;1267;22235;-81
2024/04/23 00:58:00;;;;;;;17.50;11.40;;;;;;;2.11;91.16;99573.84;273197;1264;24175;-81
2024/04/23 01:04:46;;;;;;;28.50;16.40;;;;;;;2.06;91.93;99569.04;272659;1265;22525;-81
2024/04/23 01:10:48;;;;;;;33.00;18.70;;;;;;;1.98;92.06;99561.87;273759;1265;23326;-81
2024/04/23 01:17:04;;;;;;;30.80;18.40;;;;;;;1.87;92.03;99554.72;273728;1265;23880;-81
2024/04/23 01:23:58;;;;;;;32.70;18.50;;;;;;;1.79;92.20;99551.95;274349;1265;22240;-81
2024/04/23 01:31:26;;;;;;;30.60;17.90;;;;;;;1.77;93.20;99550.92;273396;1266;22394;-81
2024/04/23 01:37:53;;;;;;;31.20;18.20;;;;;;;1.79;93.43;99543.37;272616;1264;24018;-81
2024/04/23 01:44:27;;;;;;;33.70;19.20;;;;;;;1.78;94.04;99539.17;272799;1266;22390;-81
2024/04/23 01:50:53;;;;;;;32.00;19.00;;;;;;;1.78;94.37;99540.86;274181;1265;22247;-81
2024/04/23 01:57:20;;;;;;;34.20;18.20;;;;;;;1.81;94.88;99538.63;274764;1265;23075;-81
2024/04/23 02:03:22;;;;;;;30.80;17.80;;;;;;;1.84;95.38;99532.25;273670;1266;24212;-82
2024/04/23 02:09:47;;;;;;;28.40;16.90;;;;;;;1.84;95.44;99525.10;272200;1267;22346;-81
2024/04/23 02:15:48;;;;;;;25.50;17.50;;;;;;;1.84;95.64;99522.24;274057;1267;22891;-82
2024/04/23 02:21:50;;;;;;;32.40;18.10;;;;;;;1.84;95.74;99517.81;273312;1266;22437;-82
2024/04/23 02:27:51;;;;;;;26.30;16.90;;;;;;;1.85;96.02;99516.24;273462;1267;22444;-82
2024/04/23 02:33:53;;;;;;;25.70;16.30;;;;;;;1.84;95.93;99509.73;271719;1260;23232;-82
2024/04/23 02:39:55;;;;;;;25.70;16.40;;;;;;;1.84;95.84;99507.64;272333;1266;22371;-82
2024/04/23 02:45:57;;;;;;;23.50;14.60;;;;;;;1.83;95.63;99500.45;273347;1266;23143;-81
2024/04/23 02:51:59;;;;;;;26.40;15.50;;;;;;;1.84;95.57;99493.47;273371;1265;22476;-82
2024/04/23 02:58:00;;;;;;;24.30;15.50;;;;;;;1.85;95.37;99485.19;273416;1267;22268;-82
2024/04/23 03:04:02;;;;;;;21.70;13.90;;;;;;;1.88;95.50;99482.25;272686;1261;22541;-82
2024/04/23 03:10:05;;;;;;;24.70;15.00;;;;;;;1.90;95.59;99473.24;272219;1267;22678;-81
2024/04/23 03:16:07;;;;;;;22.60;13.90;;;;;;;1.90;95.14;99465.63;270957;1266;23729;-82
2024/04/23 03:22:09;;;;;;;20.30;12.70;;;;;;;1.93;95.15;99463.67;273440;1267;22382;-82
2024/04/23 03:28:10;;;;;;;24.80;13.70;;;;;;;1.95;94.87;99458.77;272561;1267;22546;-82
2024/04/23 03:34:12;;;;;;;20.40;13.40;;;;;;;1.95;94.62;99448.70;273231;1266;22265;-84
2024/04/23 03:40:13;;;;;;;21.30;13.20;;;;;;;1.97;94.07;99450.23;272864;1266;23047;-81
2024/04/23 03:46:15;;;;;;;19.40;11.90;;;;;;;2.00;93.92;99454.33;272038;1266;22422;-82
2024/04/23 03:52:18;;;;;;;21.30;13.00;;;;;;;1.98;93.28;99451.84;273343;1260;22572;-82
2024/04/23 03:58:19;;;;;;;19.70;12.50;;;;;;;1.98;93.23;99447.16;271432;1260;22269;-83
2024/04/23 04:10:41;;;;;;;20.00;11.30;;;;;;;2.05;93.43;99453.48;272736;1266;22734;-86
2024/04/23 04:16:43;;;;;;;18.80;11.60;;;;;;;2.11;93.21;99460.35;273356;1267;22398;-81
2024/04/23 04:22:44;;;;;;;23.50;12.00;;;;;;;2.18;93.24;99461.59;273570;1266;22453;-84
2024/04/23 04:28:47;;;;;;;19.40;11.70;;;;;;;2.22;93.05;99465.52;273481;1266;22361;-82
2024/04/23 04:34:57;;;;;;;20.40;12.10;;;;;;;2.27;92.98;99467.46;273208;1266;22541;-82
2024/04/23 04:41:12;;;;;;;22.70;12.30;;;;;;;2.32;92.58;99468.64;272672;1266;22255;-81
2024/04/23 04:47:21;;;;;;;18.90;11.10;;;;;;;2.37;92.53;99466.16;271419;1266;22760;-81
2024/04/23 04:53:23;;;;;;;17.90;11.00;;;;;;;2.46;92.71;99460.10;272055;1266;22614;-81
2024/04/23 04:59:51;;;;;;;16.20;10.20;;;;;;;2.54;92.58;99454.58;272208;1266;22263;-81
2024/04/23 05:05:52;;;;;;;19.80;10.40;;;;;;;2.62;92.37;99451.27;273570;1266;22368;-82
2024/04/23 05:12:36;;;;;;;16.20;9.50;;;;;;;2.71;92.08;99448.44;273799;1266;22255;-82
2024/04/23 05:19:12;;;;;;;;;;;;;;;2.82;91.73;99444.90;273668;1266;22449;-81
2024/04/23 05:25:13;;;;;;;13.80;10.30;;;;;;;2.96;91.71;99446.77;273163;1266;22546;-81
2024/04/23 05:39:00;;;;;;;20.30;13.50;;;;;;;3.15;90.73;99438.63;271590;1266;22643;-82
2024/04/23 05:45:26;;;;;;;23.10;14.40;;;;;;;3.26;90.11;99439.37;274434;1273;23470;-81
2024/04/23 05:52:05;;;;;;;20.90;13.50;;;;;;;3.46;89.95;99433.69;274324;1266;22469;-82
2024/04/23 05:58:38;;;;;;;23.00;13.30;;;;;;;3.85;90.08;99424.57;272857;1266;23751;-82
2024/04/23 06:04:40;;;;;;;20.70;14.10;;;;;;;4.21;89.62;99418.69;272004;1266;22605;-81
2024/04/23 06:10:53;;;;;;;21.70;15.00;;;;;;;4.50;89.56;99415.14;273396;1267;22234;-81
2024/04/23 06:17:38;;;;;;;23.60;15.20;;;;;;;4.70;88.91;99411.52;273871;1267;23232;-82
2024/04/23 06:24:00;;;;;;;25.20;16.20;;;;;;;4.93;88.84;99410.29;274261;1263;22278;-81
2024/04/23 06:30:15;;;;;;;20.90;14.00;;;;;;;5.11;87.89;99404.80;271106;1266;22599;-82
2024/04/23 06:36:17;;;;;;;26.30;15.00;;;;;;;5.21;87.32;99398.16;272101;1266;23507;-82
2024/04/23 06:42:22;;;;;;;24.90;15.70;;;;;;;5.22;86.79;99395.30;272691;1267;22267;-81
2024/04/23 06:48:44;;;;;;;25.10;15.50;;;;;;;5.34;87.00;99402.29;272006;1266;22407;-81
2024/04/23 06:55:27;;;;;;;25.70;16.10;;;;;;;5.52;86.53;99406.63;274414;1263;22239;-82
2024/04/23 07:02:14;;;;;;;25.70;16.40;;;;;;;5.49;85.23;99402.61;270211;1267;22386;-82
2024/04/23 07:08:19;;;;;;;27.00;15.10;;;;;;;5.61;85.50;99390.50;272824;1266;22577;-84
2024/04/23 07:15:08;;;;;;;19.80;15.00;;;;;;;5.78;85.79;99376.40;271379;1258;23764;-82
2024/04/23 07:21:55;;;;;;;26.00;16.30;;;;;;;5.95;84.60;99376.24;273352;1267;22228;-81
2024/04/23 07:28:31;;;;;;;24.30;15.20;;;;;;;5.94;83.31;99386.32;272508;1267;22381;-82
2024/04/23 07:35:16;;;;;;;25.60;14.90;;;;;;;6.00;83.67;99389.33;274194;1270;22506;-82
2024/04/23 07:41:40;;;;;;;20.20;14.20;;;;;;;6.04;82.95;99392.65;274069;1267;22294;-82
2024/04/23 07:48:23;;;;;;;22.10;14.40;;;;;;;6.13;82.67;99394.35;273144;1267;22256;-82
2024/04/23 07:54:25;;;;;;;22.70;13.90;;;;;;;6.25;82.84;99390.80;272302;1266;22254;-83
2024/04/23 08:00:29;;;;;;;22.30;14.90;;;;;;;6.66;83.06;99383.64;273853;1267;23043;-82
2024/04/23 08:07:12;;;;;;;21.70;14.70;;;;;;;6.96;82.41;99365.38;273651;1270;24019;-82
2024/04/23 08:13:16;;;;;;;20.80;14.10;;;;;;;7.28;82.09;99361.63;274034;1269;22234;-83
2024/04/23 08:20:00;;;;;;;22.10;14.30;;;;;;;7.47;81.37;99358.30;273853;1267;22365;-82
2024/04/23 08:26:28;;;;;;;24.10;14.70;;;;;;;7.76;81.57;99345.34;273265;1267;22394;-82
2024/04/23 08:33:11;;;;;;;20.10;13.60;;;;;;;8.07;81.05;99332.88;273581;1270;22234;-83
2024/04/23 08:39:39;;;;;;;19.10;13.00;;;;;;;8.16;80.23;99326.33;273323;1269;22216;-82
2024/04/23 08:45:40;;;;;;;20.40;13.50;;;;;;;8.26;79.56;99320.92;272972;1266;23131;-83
2024/04/23 08:52:25;;;;;;;20.00;14.00;;;;;;;8.21;78.69;99320.30;273967;1269;22233;-81
2024/04/23 08:58:30;;;;;;;;;;;;;;;8.44;79.05;99319.51;272390;1267;22533;-83
2024/04/23 09:04:33;;;;;;;17.50;12.40;;;;;;;8.33;77.86;99313.77;272431;1269;22275;-83
2024/04/23 09:11:19;;;;;;;18.00;13.10;;;;;;;8.40;77.61;99305.05;273919;1273;22398;-82
2024/04/23 09:18:07;;;;;;;18.10;12.30;;;;;;;8.48;75.83;99295.90;273911;1269;22268;-82
2024/04/23 09:24:30;;;;;;;24.00;13.80;;;;;;;8.73;75.63;99284.65;272726;1267;22510;-84
2024/04/23 09:31:15;;;;;;;19.30;13.20;;;;;;;8.78;74.29;99280.84;271791;1272;23914;-83
2024/04/23 09:37:51;;;;;;;20.40;13.40;;;;;;;8.97;74.86;99273.88;270913;1271;22524;-84
2024/04/23 09:43:59;;;;;;;19.10;13.40;;;;;;;9.33;75.42;99259.89;269883;1270;24286;-84
2024/04/23 09:50:02;;;;;;;20.70;12.90;;;;;;;9.48;75.01;99256.05;271281;1264;22364;-83
2024/04/23 09:56:37;;;;;;;20.70;13.20;;;;;;;9.44;74.73;99250.42;272921;1273;22738;-83
2024/04/23 10:03:04;;;;;;;18.90;13.90;;;;;;;9.97;74.24;99244.92;273594;1269;22228;-83
2024/04/23 10:09:15;;;;;;;21.00;12.90;;;;;;;10.34;73.38;99223.67;272356;1267;22728;-83
2024/04/23 10:15:49;;;;;;;19.70;13.50;;;;;;;10.82;72.82;99213.73;272688;1267;22641;-83
2024/04/23 10:22:14;;;;;;;16.30;12.40;;;;;;;11.19;70.35;99205.99;272872;1266;22511;-84
2024/04/23 10:28:48;;;;;;;18.00;12.40;;;;;;;11.79;70.67;99193.33;274122;1273;23012;-83
2024/04/23 10:35:40;;;;;;;15.80;11.30;;;;;;;12.37;69.60;99188.83;273026;1267;22698;-83
2024/04/23 10:41:54;;;;;;;16.90;11.50;;;;;;;12.69;68.52;99183.67;271351;1266;22509;-83
2024/04/23 10:48:06;;;;;;;15.50;11.90;;;;;;;12.81;67.11;99176.37;271582;1267;23911;-83
2024/04/23 10:54:32;;;;;;;14.20;10.80;;;;;;;12.84;67.48;99160.21;271491;1267;22588;-83
2024/04/23 11:00:36;;;;;;;17.10;12.10;;;;;;;12.54;66.22;99151.89;273234;1266;22884;-83
2024/04/23 11:07:05;;;;;;;14.00;11.30;;;;;;;12.24;65.49;99145.19;273922;1267;22288;-83
2024/04/23 11:14:01;;;;;;;13.20;10.70;;;;;;;12.23;65.60;99135.39;271599;1257;1452553;-83
2024/04/23 11:20:38;;;;;;;16.30;11.50;;;;;;;11.87;65.18;99128.93;272818;1267;22440;-84
2024/04/23 11:26:44;;;;;;;19.80;12.70;;;;;;;11.68;65.34;99115.98;274066;1259;23501;-84
2024/04/23 11:32:47;;;;;;;15.40;11.30;;;;;;;12.25;65.36;99101.12;271941;1267;22811;-83
2024/04/23 11:38:49;;;;;;;13.40;9.80;;;;;;;12.80;65.10;99080.92;273612;1267;23456;-83
2024/04/23 11:44:52;;;;;;;12.40;10.00;;;;;;;13.33;64.41;99068.20;272234;1267;22561;-84
2024/04/23 11:52:00;;;;;;;13.30;10.40;;;;;;;13.12;63.01;99063.69;272788;1267;22431;-84
2024/04/23 11:58:49;;;;;;;13.30;9.50;;;;;;;12.65;62.31;99059.13;273852;1270;22446;-83
2024/04/23 12:05:36;;;;;;;13.80;10.20;;;;;;;12.83;62.27;99046.23;273685;1267;22262;-83
2024/04/23 12:11:45;;;;;;;13.70;9.90;;;;;;;12.73;61.64;99040.33;272418;1266;23258;-83
2024/04/23 12:18:06;;;;;;;12.30;9.30;;;;;;;12.85;61.67;99029.93;273284;1269;22263;-83
2024/04/23 12:24:13;;;;;;;11.80;8.60;;;;;;;12.67;61.27;99013.70;273919;1261;22370;-84
2024/04/23 12:37:56;;;;;;;11.80;9.00;;;;;;;12.14;57.60;98994.05;272273;1267;22542;-83
2024/04/23 12:44:19;;;;;;;11.30;8.50;;;;;;;11.98;57.91;98984.55;272988;1263;22249;-84
2024/04/23 12:50:26;;;;;;;11.30;8.90;;;;;;;12.15;59.08;98970.92;273854;1269;22326;-83
2024/04/23 12:57:19;;;;;;;13.90;8.20;;;;;;;12.02;58.46;98967.25;273864;1267;22396;-84
2024/04/23 13:03:28;;;;;;;10.90;8.10;;;;;;;11.82;58.73;98961.18;273933;1267;22293;-83
2024/04/23 13:09:52;;;;;;;16.80;9.30;;;;;;;12.08;57.73;98951.69;274183;1267;22249;-83
2024/04/23 13:16:38;;;;;;;12.20;7.30;;;;;;;11.95;57.03;98941.04;273752;1266;23284;-84
2024/04/23 13:23:05;;;;;;;9.00;6.70;;;;;;;11.83;57.38;98927.41;273624;1266;22460;-82
2024/04/23 13:29:12;;;;;;;12.60;7.50;;;;;;;12.09;57.76;98910.61;274413;1273;22265;-83
2024/04/23 13:35:15;;;;;;;15.50;8.20;;;;;;;12.05;57.46;98901.73;273408;1266;24067;-81
2024/04/23 13:42:02;;;;;;;12.20;8.00;;;;;;;12.16;57.90;98887.51;271839;1266;23252;-83
2024/04/23 13:48:05;;;;;;;9.80;8.10;;;;;;;12.37;57.76;98878.69;272341;1266;22546;-83
2024/04/23 13:54:49;;;;;;;12.40;8.90;;;;;;;12.28;57.03;98878.14;272781;1266;22315;-82
2024/04/23 14:01:05;;;;;;;13.30;8.30;;;;;;;11.98;57.09;98871.53;273665;1267;25282;-85
2024/04/23 14:07:06;;;;;;;12.40;7.60;;;;;;;11.70;57.45;98865.92;272356;1266;22765;-82
2024/04/23 14:13:56;;;;;;;14.50;8.20;;;;;;;11.56;57.68;98858.94;273306;1267;23090;-82
2024/04/23 14:20:20;;;;;;;10.90;7.70;;;;;;;11.46;57.92;98853.95;273165;1266;22367;-81
2024/04/23 14:26:51;;;;;;;14.50;7.70;;;;;;;11.28;58.05;98847.44;273436;1266;22487;-82
2024/04/23 14:33:37;;;;;;;9.70;7.10;;;;;;;11.10;58.28;98838.02;273329;1263;22928;-82
2024/04/23 14:40:21;;;;;;;13.80;7.60;;;;;;;10.98;58.59;98826.81;274047;1271;22248;-82
2024/04/23 14:47:44;;;;;;;10.70;7.50;;;;;;;11.02;58.92;98799.92;273407;1269;22272;-81
2024/04/23 14:54:30;;;;;;;11.80;7.00;;;;;;;11.03;58.97;98775.98;273089;1267;22392;-82
2024/04/23 15:00:32;;;;;;;8.80;6.40;;;;;;;11.01;58.99;98763.29;271799;1267;22595;-82
2024/04/23 15:06:36;;;;;;;9.40;6.50;;;;;;;10.95;59.24;98747.22;270544;1267;25163;-81
2024/04/23 15:12:37;;;;;;;9.60;6.70;;;;;;;10.90;59.46;98750.25;272649;1266;22501;-82
2024/04/23 15:18:40;;;;;;;8.40;6.30;;;;;;;10.91;59.79;98749.93;271233;1263;23509;-83
2024/04/23 15:25:05;;;;;;;9.30;6.80;;;;;;;11.01;59.92;98742.32;273980;1269;23034;-81
2024/04/23 15:31:16;;;;;;;9.60;7.10;;;;;;;11.01;59.40;98731.83;272111;1266;24203;-81
2024/04/23 15:37:20;;;;;;;10.80;8.00;;;;;;;10.96;59.39;98735.49;270858;1266;22550;-82
2024/04/23 15:43:43;;;;;;;10.50;6.80;;;;;;;11.02;59.51;98726.98;272398;1266;22988;-83
2024/04/23 15:49:59;;;;;;;13.30;8.40;;;;;;;11.05;59.42;98712.83;270863;1266;22598;-81
2024/04/23 15:56:44;;;;;;;9.40;6.30;;;;;;;11.04;59.66;98711.80;271285;1266;23469;-82
2024/04/23 16:02:48;;;;;;;9.00;6.70;;;;;;;10.88;59.49;98714.55;271165;1259;22561;-82
2024/04/23 16:08:52;;;;;;;9.40;6.80;;;;;;;10.63;59.96;98706.98;271726;1266;22647;-83
2024/04/23 16:14:54;;;;;;;14.00;7.60;;;;;;;10.38;60.05;98689.77;271972;1266;23280;-81
2024/04/23 16:21:38;;;;;;;9.80;6.90;;;;;;;10.15;60.27;98689.98;273291;1266;22565;-83
2024/04/23 16:27:40;;;;;;;11.80;7.60;;;;;;;10.03;60.64;98685.16;271404;1267;22561;-81
2024/04/23 16:33:44;;;;;;;14.30;8.00;;;;;;;9.92;60.91;98677.80;270943;1266;23667;-81
2024/04/23 16:40:12;;;;;;;11.20;8.50;;;;;;;9.81;61.29;98676.47;273156;1267;22326;-81
2024/04/23 16:46:14;;;;;;;13.70;8.90;;;;;;;9.67;61.31;98667.58;273339;1267;23802;-80
2024/04/23 16:52:57;;;;;;;11.10;8.40;;;;;;;9.48;61.83;98673.96;273748;1266;22251;-82
2024/04/23 16:59:51;;;;;;;12.10;7.30;;;;;;;9.34;62.39;98668.58;273466;1267;22337;-81
2024/04/23 17:06:35;;;;;;;9.70;8.50;;;;;;;9.25;62.95;98668.79;273141;1266;22449;-82
2024/04/23 17:12:56;;;;;;;10.80;8.10;;;;;;;9.14;63.28;98658.45;274144;1267;22256;-80
2024/04/23 17:19:38;;;;;;;10.70;7.90;;;;;;;9.05;63.59;98653.52;273933;1267;22400;-81
2024/04/23 17:26:23;;;;;;;12.60;9.90;;;;;;;8.94;64.37;98658.90;273527;1266;23649;-81
2024/04/23 17:32:25;;;;;;;16.50;9.40;;;;;;;8.83;65.44;98662.21;273138;1266;23827;-82
2024/04/23 17:38:27;;;;;;;14.70;9.50;;;;;;;8.75;66.29;98655.39;272112;1266;22697;-81
2024/04/23 17:44:29;;;;;;;15.70;10.80;;;;;;;8.64;66.82;98648.86;272010;1264;22829;-81
2024/04/23 17:50:36;;;;;;;15.00;10.50;;;;;;;8.53;67.23;98642.95;272872;1266;22217;-82
2024/04/23 17:56:48;;;;;;;17.40;12.80;;;;;;;8.44;67.88;98633.08;272716;1266;22401;-82
2024/04/23 18:03:26;;;;;;;26.70;15.00;;;;;;;8.37;68.84;98631.66;273624;1266;22431;-81
2024/04/23 18:10:53;;;;;;;16.20;11.50;;;;;;;8.30;69.44;98628.99;272004;1265;22569;-81
2024/04/23 18:17:40;;;;;;;22.70;11.40;;;;;;;8.23;70.03;98630.81;272386;1266;22238;-81
2024/04/23 18:24:11;;;;;;;15.70;11.10;;;;;;;8.13;70.67;98628.09;274153;1269;22239;-81
2024/04/23 18:31:24;;;;;;;21.10;12.80;;;;;;;8.00;71.56;98636.92;274135;1274;22256;-81
2024/04/23 18:37:50;;;;;;;16.60;11.80;;;;;;;7.85;72.39;98641.06;274156;1266;23532;-81
2024/04/23 18:43:52;;;;;;;22.30;13.10;;;;;;;7.72;73.09;98641.55;273589;1266;23293;-82
2024/04/23 18:50:54;;;;;;;19.30;13.20;;;;;;;7.57;73.75;98636.86;274116;1273;22235;-81
2024/04/23 18:58:20;;;;;;;35.90;19.70;;;;;;;7.39;74.50;98631.16;274118;1266;23007;-81
2024/04/23 19:04:45;;;;;;;39.60;17.20;;;;;;;7.23;75.26;98629.09;273801;1266;22249;-81
2024/04/23 19:11:12;;;;;;;27.50;15.50;;;;;;;7.04;75.90;98625.06;273576;1266;22725;-81
2024/04/23 19:17:50;;;;;;;30.80;16.90;;;;;;;6.85;76.74;98613.34;274373;1269;22302;-81
2024/04/23 19:24:19;;;;;;;34.10;21.00;;;;;;;6.68;77.30;98606.88;274017;1266;22397;-81
2024/04/23 19:30:40;;;;;;;42.50;21.90;;;;;;;6.53;78.03;98596.70;273826;1266;22560;-81
2024/04/23 19:37:40;;;;;;;33.10;19.60;;;;;;;6.40;78.90;98581.27;273645;1266;22394;-81
2024/04/23 19:44:02;;;;;;;32.50;20.00;;;;;;;6.26;79.80;98574.47;271786;1266;22540;-81
2024/04/23 19:50:05;;;;;;;28.40;18.60;;;;;;;6.19;80.69;98569.89;271394;1258;23290;-82
2024/04/23 20:03:12;;;;;;;36.80;20.40;;;;;;;6.13;81.82;98566.50;274034;1267;23571;-81
2024/04/23 20:09:53;;;;;;;35.30;21.90;;;;;;;6.09;82.07;98559.04;273978;1261;22818;-81
2024/04/23 20:15:58;;;;;;;40.50;22.80;;;;;;;6.05;83.03;98553.58;272017;1267;23413;-83
2024/04/23 20:22:02;;;;;;;36.40;23.20;;;;;;;6.02;83.79;98538.70;271572;1267;22405;-82
2024/04/23 20:28:03;;;;;;;35.40;23.40;;;;;;;6.01;84.10;98535.17;271255;1266;22739;-81
2024/04/23 20:34:05;;;;;;;38.10;22.20;;;;;;;6.00;85.28;98525.45;271337;1266;22755;-81
2024/04/23 20:40:23;;;;;;;37.50;23.20;;;;;;;5.90;85.76;98515.06;273841;1266;22810;-81
2024/04/23 20:46:47;;;;;;;37.80;22.60;;;;;;;5.86;86.50;98517.69;273390;1266;22458;-81
2024/04/23 20:53:10;;;;;;;37.20;22.50;;;;;;;5.88;87.40;98515.95;274135;1269;22392;-81
2024/04/23 20:59:53;;;;;;;38.10;22.30;;;;;;;5.89;87.80;98518.21;273413;1266;22569;-81
2024/04/23 21:06:26;;;;;;;42.00;20.90;;;;;;;5.90;88.28;98516.69;273678;1264;23057;-81
2024/04/23 21:12:50;;;;;;;38.80;21.80;;;;;;;5.92;89.10;98506.35;273674;1267;22511;-81
2024/04/23 21:19:13;;;;;;;47.20;27.70;;;;;;;5.94;89.58;98496.52;273744;1266;22257;-81
2024/04/23 21:25:49;;;;;;;47.10;28.60;;;;;;;5.93;89.74;98487.34;274016;1266;22325;-81
2024/04/23 21:32:31;;;;;;;56.50;29.90;;;;;;;5.95;89.83;98477.45;274305;1266;22262;-81
2024/04/23 21:39:22;;;;;;;44.40;26.60;;;;;;;5.98;89.86;98467.03;274230;1267;23507;-81
2024/04/23 21:45:27;;;;;;;45.70;26.50;;;;;;;6.02;90.33;98451.74;273644;1266;22458;-81
2024/04/23 21:51:52;;;;;;;52.20;29.40;;;;;;;6.04;90.59;98439.29;273915;1266;22290;-81
2024/04/23 21:58:20;;;;;;;51.10;29.60;;;;;;;6.04;90.52;98429.35;273983;1266;23032;-81
2024/04/23 22:05:02;;;;;;;54.10;30.70;;;;;;;6.05;90.87;98419.29;274056;1254;22255;-81
2024/04/23 22:12:06;;;;;;;49.70;28.80;;;;;;;6.05;91.11;98406.33;273755;1266;22401;-81
2024/04/23 22:18:52;;;;;;;52.80;30.00;;;;;;;6.04;91.41;98393.65;272093;1266;22247;-82
2024/04/23 22:24:54;;;;;;;49.50;28.50;;;;;;;6.05;91.83;98377.98;273359;1266;22469;-81
2024/04/23 22:30:56;;;;;;;57.60;30.10;;;;;;;6.06;92.05;98372.73;270350;1266;22648;-81
2024/04/23 22:36:57;;;;;;;52.50;31.10;;;;;;;6.07;92.36;98370.96;272852;1267;22550;-83
2024/04/23 22:43:19;;;;;;;46.30;27.80;;;;;;;6.08;92.63;98370.20;271850;1266;26550;-80
2024/04/23 22:49:21;;;;;;;41.70;24.30;;;;;;;6.14;93.43;98369.52;271382;1266;22462;-83
2024/04/23 22:56:02;;;;;;;44.20;25.00;;;;;;;6.16;94.10;98363.20;274188;1269;22908;-80
2024/04/23 23:03:07;;;;;;;43.20;25.20;;;;;;;6.16;93.43;98361.58;273543;1266;22418;-82
2024/04/23 23:09:08;;;;;;;44.80;26.30;;;;;;;6.09;92.92;98362.06;273982;1267;22500;-81
2024/04/23 23:15:37;;;;;;;39.80;23.50;;;;;;;6.14;94.14;98352.14;273510;1261;130664;-81
2024/04/23 23:22:26;;;;;;;46.00;26.60;;;;;;;6.23;95.39;98337.87;273988;1274;22272;-80
2024/04/23 23:29:03;;;;;;;49.00;28.90;;;;;;;6.20;95.54;98319.17;274218;1267;23443;-81
2024/04/23 23:35:07;;;;;;;45.80;27.30;;;;;;;6.17;95.80;98301.81;273374;1266;22584;-81
2024/04/23 23:41:44;;;;;;;42.40;25.00;;;;;;;6.23;96.39;98288.54;271211;1263;22554;-81
2024/04/23 23:48:05;;;;;;;33.40;18.60;;;;;;;6.27;96.33;98280.08;274326;1273;22281;-81
2024/04/23 23:54:07;;;;;;;42.50;25.20;;;;;;;6.23;96.74;98273.64;274178;1266;22353;-81
